Time;durP1;ratioP1;P1;durP2;ratioP2;P2;SDS_P1;SDS_P2;PMS_P1;PMS_P2;Temp;Humidity;BMP_temperature;BMP_pressure;BME280_temperature;BME280_humidity;BME280_pressure;Samples;Min_cycle;Max_cycle;Signal;HPM_P1;HPM_P2
2022/03/06 00:00:41;;;;;;;16.10;9.40;;;;;;;2.42;49.66;100956.31;6097793;23;20081;-93
2022/03/06 00:14:48;;;;;;;15.75;10.07;;;;;;;1.89;50.10;100914.75;6094250;23;20039;-94
2022/03/06 00:17:44;;;;;;;19.88;10.68;;;;;;;1.83;51.31;100925.19;6102301;23;20038;-93
2022/03/06 00:20:42;;;;;;;21.02;10.57;;;;;;;1.96;52.68;100966.94;6101694;23;20030;-93
2022/03/06 00:23:48;;;;;;;20.30;11.45;;;;;;;1.50;53.41;100897.44;6101468;23;20534;-93
2022/03/06 00:26:39;;;;;;;18.45;11.38;;;;;;;1.41;53.90;100919.19;6045706;23;20078;-94
2022/03/06 00:48:07;;;;;;;21.83;12.30;;;;;;;1.24;57.14;100968.78;6107633;23;20061;-91
2022/03/06 00:58:26;;;;;;;19.58;11.73;;;;;;;0.90;58.04;100949.63;6013597;23;20039;-92
2022/03/06 01:46:35;;;;;;;18.73;10.95;;;;;;;1.00;58.17;100911.38;6115460;23;20022;-94
2022/03/06 01:49:26;;;;;;;17.35;10.98;;;;;;;1.20;57.48;100940.09;6135627;23;20080;-93
2022/03/06 02:12:44;;;;;;;19.27;11.45;;;;;;;1.58;56.38;100953.06;6128821;23;20448;-94
2022/03/06 02:28:38;;;;;;;21.20;11.48;;;;;;;1.57;56.89;100959.19;6039790;23;20087;-93
2022/03/06 02:39:16;;;;;;;;;;;;;;;1.71;55.98;100954.81;6029415;23;20029;-93
2022/03/06 02:46:06;;;;;;;19.00;10.23;;;;;;;1.23;56.75;100885.31;6047242;23;20535;-94
2022/03/06 02:48:58;;;;;;;20.25;11.60;;;;;;;1.49;56.91;100935.69;6048503;23;20031;-93
2022/03/06 02:59:54;;;;;;;;;;;;;;;;;;;;;
2022/03/06 03:02:46;;;;;;;18.27;11.07;;;;;;;1.43;56.65;100909.59;6097576;23;20046;-92
2022/03/06 03:09:25;;;;;;;23.95;11.23;;;;;;;1.22;56.31;100884.44;6104953;23;20032;-93
2022/03/06 03:17:11;;;;;;;21.92;11.95;;;;;;;1.09;56.25;100900.09;6152764;22;20026;-94
2022/03/06 03:19:53;;;;;;;19.75;11.68;;;;;;;0.94;57.37;100896.63;6126721;23;20056;-94
2022/03/06 04:33:51;;;;;;;16.52;11.05;;;;;;;0.00;61.94;101014.44;6118004;23;20029;-95
2022/03/06 04:40:34;;;;;;;20.08;10.75;;;;;;;-0.13;61.40;101011.75;6076087;23;20047;-93
2022/03/06 07:49:09;;;;;;;20.15;12.50;;;;;;;1.69;57.67;101093.19;6104367;23;20084;-94
2022/03/06 07:51:57;;;;;;;21.52;13.40;;;;;;;1.66;57.66;101055.75;6138841;23;20077;-93
2022/03/06 07:58:47;;;;;;;21.45;13.38;;;;;;;2.37;57.14;101113.13;6146693;23;20037;-95
2022/03/06 08:02:03;;;;;;;;;;;;;;;;;;;;;
2022/03/06 08:09:07;;;;;;;;;;;;;;;;;;;;;
2022/03/06 08:38:25;;;;;;;;;;;;;;;;;;;;;
2022/03/06 08:41:06;;;;;;;21.02;12.18;;;;;;;3.81;51.78;101147.34;6042113;23;20014;-94
2022/03/06 08:43:40;;;;;;;22.10;12.50;;;;;;;3.99;50.83;101141.09;6127392;23;20010;-94
2022/03/06 08:46:37;;;;;;;20.88;12.90;;;;;;;4.31;50.17;101139.06;6132285;23;20431;-94
2022/03/06 08:49:16;;;;;;;18.08;12.40;;;;;;;4.69;49.19;101137.81;6105164;23;20050;-95
2022/03/06 08:51:52;;;;;;;18.52;12.00;;;;;;;4.88;48.33;101084.19;6104246;23;20022;-95
2022/03/06 08:54:29;;;;;;;16.40;11.43;;;;;;;5.35;47.75;101080.94;6104330;23;20015;-96
2022/03/06 08:57:17;;;;;;;18.90;12.07;;;;;;;6.19;45.67;101108.50;6101511;23;20026;-95
2022/03/06 09:00:04;;;;;;;18.00;11.20;;;;;;;6.78;44.22;101117.03;6108788;23;20021;-95
2022/03/06 09:03:00;;;;;;;18.15;12.40;;;;;;;7.06;42.92;101139.31;6108767;23;20097;-96
2022/03/06 09:05:45;;;;;;;15.43;11.00;;;;;;;7.50;42.19;101145.38;6104343;23;20042;-94
2022/03/06 09:08:16;;;;;;;17.95;12.52;;;;;;;7.57;40.56;101121.47;6106283;23;20362;-95
2022/03/06 09:11:21;;;;;;;14.07;10.95;;;;;;;7.97;39.45;101105.56;6111111;23;20014;-94
2022/03/06 09:14:12;;;;;;;17.42;12.10;;;;;;;7.73;39.60;101111.44;6110360;23;20320;-95
2022/03/06 09:17:00;;;;;;;16.08;11.38;;;;;;;8.07;39.37;101135.22;6110583;23;20018;-94
2022/03/06 09:19:44;;;;;;;16.63;11.18;;;;;;;8.29;37.99;101102.09;6107854;23;20463;-93
2022/03/06 09:22:25;;;;;;;15.27;11.23;;;;;;;8.04;38.54;101088.66;6109584;23;20036;-95
2022/03/06 09:25:06;;;;;;;16.23;11.05;;;;;;;8.48;38.33;101104.28;6112632;23;20042;-95
2022/03/06 09:27:56;;;;;;;14.30;10.43;;;;;;;9.09;36.71;101133.34;6112847;23;20050;-95
2022/03/06 09:30:55;;;;;;;;;;;;;;;;;;;;;
2022/03/06 09:37:55;;;;;;;;;;;;;;;;;;;;;
2022/03/06 09:40:44;;;;;;;15.52;11.30;;;;;;;9.00;36.12;101130.97;6159117;23;20333;-94
2022/03/06 09:43:25;;;;;;;15.38;11.02;;;;;;;8.57;36.71;101093.47;6159468;23;20069;-95
2022/03/06 09:46:10;;;;;;;14.02;10.85;;;;;;;8.77;35.89;101077.94;6118226;23;20017;-94
2022/03/06 09:48:55;;;;;;;14.25;10.75;;;;;;;9.43;33.52;101093.56;6077290;23;20058;-94
2022/03/06 09:51:44;;;;;;;14.00;10.73;;;;;;;9.46;34.42;101119.00;6074361;23;20023;-94
2022/03/06 09:54:16;;;;;;;12.70;10.00;;;;;;;9.60;33.34;101078.94;6067910;23;20051;-95
2022/03/06 09:57:22;;;;;;;13.02;10.23;;;;;;;10.66;32.00;101140.66;6068464;23;20498;-93
2022/03/06 09:59:55;;;;;;;11.95;9.45;;;;;;;11.09;30.56;101121.41;6074534;23;20011;-93
2022/03/06 10:03:01;;;;;;;12.85;9.88;;;;;;;10.90;29.80;101082.31;6071512;23;20034;-93
2022/03/06 10:05:47;;;;;;;10.52;8.80;;;;;;;11.54;29.26;101101.06;6069361;23;20062;-91
2022/03/06 10:08:36;;;;;;;12.15;8.50;;;;;;;12.00;27.58;101095.69;6073533;23;20358;-93
2022/03/06 10:11:16;;;;;;;11.18;8.80;;;;;;;12.69;26.89;101122.84;6074973;23;20023;-95
2022/03/06 10:13:56;;;;;;;10.27;8.13;;;;;;;13.03;25.68;101069.03;6071743;23;20027;-95
2022/03/06 10:17:14;;;;;;;11.55;8.70;;;;;;;13.38;24.83;101118.78;6053020;23;20147;-92
2022/03/06 10:20:01;;;;;;;8.10;6.68;;;;;;;13.69;23.85;101057.81;6089201;23;20015;-93
2022/03/06 10:22:37;;;;;;;9.05;7.78;;;;;;;13.48;24.48;101098.78;6088060;23;20030;-94
2022/03/06 10:25:21;;;;;;;10.48;8.43;;;;;;;13.23;25.21;101075.13;6085615;23;20030;-94
2022/03/06 10:28:03;;;;;;;10.60;8.18;;;;;;;12.79;26.96;101070.97;6169394;23;20073;-93
2022/03/06 10:30:46;;;;;;;11.98;8.95;;;;;;;13.49;26.09;101104.97;6111615;23;20014;-94
2022/03/06 10:33:23;;;;;;;9.27;7.85;;;;;;;13.96;24.12;101081.38;6110442;23;20013;-92
2022/03/06 10:35:53;;;;;;;8.40;7.10;;;;;;;13.25;23.04;101114.97;6161081;23;20111;-93
2022/03/06 10:38:27;;;;;;;8.77;7.45;;;;;;;11.56;24.69;101080.66;6162108;23;20373;-93
2022/03/06 10:41:17;;;;;;;8.70;7.72;;;;;;;10.19;27.08;101043.44;6162652;23;20021;-93
2022/03/06 10:44:42;;;;;;;9.73;8.05;;;;;;;9.47;28.63;101055.53;6144803;23;20060;-93
2022/03/06 10:47:25;;;;;;;9.25;7.72;;;;;;;10.62;28.90;101110.75;6140926;23;20021;-94
2022/03/06 10:50:02;;;;;;;8.77;7.30;;;;;;;11.39;26.44;101099.00;6163076;23;20021;-93
2022/03/06 10:52:45;;;;;;;9.30;7.10;;;;;;;12.06;25.56;101061.81;6171116;23;20017;-94
2022/03/06 10:55:35;;;;;;;9.15;7.18;;;;;;;12.06;24.51;101079.53;6152163;23;20021;-92
2022/03/06 10:58:06;;;;;;;8.63;7.43;;;;;;;11.79;25.27;101118.69;6164065;23;20131;-93
2022/03/06 11:00:49;;;;;;;8.30;6.60;;;;;;;11.04;25.72;101113.59;6164870;23;20017;-93
2022/03/06 11:03:24;;;;;;;7.50;6.28;;;;;;;11.17;25.82;101100.78;6159876;23;20041;-95
2022/03/06 11:06:09;;;;;;;6.97;5.78;;;;;;;12.15;24.55;101065.84;6128513;23;20021;-95
2022/03/06 11:08:39;;;;;;;6.82;5.90;;;;;;;13.16;22.92;101054.25;6130876;23;20018;-94
2022/03/06 11:11:12;;;;;;;7.05;6.35;;;;;;;13.20;22.94;101099.25;6130484;23;20449;-92
2022/03/06 11:13:42;;;;;;;7.75;5.60;;;;;;;12.70;23.42;101085.56;6129003;23;20021;-92
2022/03/06 11:17:19;;;;;;;5.85;5.25;;;;;;;13.98;22.94;101106.13;6130962;23;20021;-94
2022/03/06 11:20:13;;;;;;;7.00;6.30;;;;;;;15.00;21.06;101068.81;6071628;23;20037;-95
2022/03/06 11:23:14;;;;;;;8.88;6.50;;;;;;;15.63;20.29;101085.75;6075450;23;20042;-93
2022/03/06 11:26:17;;;;;;;8.00;7.20;;;;;;;15.61;20.72;101065.41;6065209;23;20110;-92
2022/03/06 11:29:25;;;;;;;8.30;7.18;;;;;;;16.52;19.56;101084.06;6076049;23;20269;-94
2022/03/06 11:32:09;;;;;;;7.93;6.57;;;;;;;16.01;20.13;101037.25;6079416;23;20019;-92
2022/03/06 11:35:15;;;;;;;8.52;6.95;;;;;;;16.55;19.24;101051.75;6076053;23;20030;-94
2022/03/06 11:41:10;;;;;;;7.45;6.65;;;;;;;16.01;20.01;101083.53;6132093;23;20137;-95
2022/03/06 11:43:48;;;;;;;9.63;7.60;;;;;;;14.55;21.02;101050.81;6134106;23;20024;-96
2022/03/06 11:46:48;;;;;;;7.63;6.85;;;;;;;13.74;22.19;101030.97;6139924;23;20021;-96
2022/03/06 11:49:40;;;;;;;7.55;6.85;;;;;;;13.56;22.18;101070.00;6137451;23;20025;-95
2022/03/06 11:52:42;;;;;;;;;;;;;;;;;;;;;
2022/03/06 11:55:41;;;;;;;8.85;7.35;;;;;;;11.91;23.73;101006.72;6106137;23;20022;-96
2022/03/06 11:59:02;;;;;;;8.63;7.72;;;;;;;11.74;25.15;101067.56;6085845;23;20023;-95
2022/03/06 12:01:35;;;;;;;9.00;8.10;;;;;;;11.01;25.74;101002.44;6108933;23;20046;-95
2022/03/06 12:04:13;;;;;;;10.18;8.57;;;;;;;10.86;26.23;101040.97;6115582;23;20077;-95
2022/03/06 12:07:11;;;;;;;9.02;7.30;;;;;;;10.75;25.54;101053.75;6082168;23;20021;-95
2022/03/06 12:09:45;;;;;;;8.20;7.10;;;;;;;10.49;25.56;101000.91;6112994;23;20023;-94
2022/03/06 12:13:03;;;;;;;7.68;6.18;;;;;;;11.13;25.86;101059.41;6079822;23;20023;-95
2022/03/06 12:19:44;;;;;;;7.72;6.60;;;;;;;10.34;25.93;101054.41;5958404;24;20021;-96
2022/03/06 12:22:32;;;;;;;9.30;7.82;;;;;;;10.55;26.28;101046.53;5824966;24;20124;-94
2022/03/06 12:25:14;;;;;;;8.65;7.60;;;;;;;10.64;27.16;101033.91;5825821;24;20054;-96
2022/03/06 12:28:58;;;;;;;10.98;8.23;;;;;;;11.44;25.87;101032.53;5816077;24;20023;-96
2022/03/06 12:31:40;;;;;;;11.07;8.57;;;;;;;12.44;24.51;100998.19;5823678;24;20041;-92
2022/03/06 12:34:44;;;;;;;9.27;6.82;;;;;;;14.06;22.17;101021.38;5845039;24;20110;-94
2022/03/06 12:37:13;;;;;;;8.40;7.28;;;;;;;14.55;21.56;100962.88;5844744;24;20056;-94
2022/03/06 12:40:18;;;;;;;9.07;7.78;;;;;;;15.20;20.24;100955.66;5848309;24;20136;-93
2022/03/06 12:43:05;;;;;;;8.63;6.97;;;;;;;15.24;21.24;100981.22;5848590;24;20038;-95
2022/03/06 12:45:52;;;;;;;8.02;7.00;;;;;;;15.60;20.41;100978.25;5939137;24;20031;-95
2022/03/06 12:48:40;;;;;;;7.93;7.13;;;;;;;14.83;21.36;100967.53;5957168;24;20191;-95
2022/03/06 12:51:38;;;;;;;7.55;6.70;;;;;;;14.16;21.85;100984.47;5982796;23;20028;-94
2022/03/06 13:12:47;;;;;;;7.95;6.97;;;;;;;10.36;26.56;100983.75;6211230;23;20203;-93
2022/03/06 13:15:38;;;;;;;9.15;6.93;;;;;;;9.83;27.15;100974.09;6186249;23;20009;-94
2022/03/06 13:21:20;;;;;;;9.63;6.75;;;;;;;12.17;25.19;101003.78;6201062;23;20065;-95
2022/03/06 13:27:30;;;;;;;7.90;6.95;;;;;;;12.36;23.83;100933.94;6142449;23;20044;-94
2022/03/06 13:58:09;;;;;;;10.07;8.20;;;;;;;12.00;25.66;100939.97;6128553;23;20398;-93
2022/03/06 14:00:43;;;;;;;9.88;8.32;;;;;;;11.36;26.60;101002.81;6128293;23;20022;-94
2022/03/06 14:03:44;;;;;;;10.23;8.60;;;;;;;10.32;28.68;101011.25;6122225;23;20060;-93
2022/03/06 14:07:00;;;;;;;10.07;8.80;;;;;;;9.07;29.49;100942.31;6106933;23;20025;-93
2022/03/06 14:09:36;;;;;;;10.55;8.80;;;;;;;8.81;30.49;100958.13;6131120;23;20386;-94
2022/03/06 14:12:20;;;;;;;10.07;8.93;;;;;;;8.54;31.17;100946.59;6105402;23;20033;-93
2022/03/06 14:15:14;;;;;;;11.68;8.82;;;;;;;8.71;31.18;100965.44;6127157;23;20014;-93
2022/03/06 14:17:57;;;;;;;10.15;8.82;;;;;;;8.57;31.32;100946.50;6126894;23;20423;-95
2022/03/06 14:20:44;;;;;;;11.13;9.93;;;;;;;8.24;31.13;100942.19;6127273;23;20017;-95
2022/03/06 14:23:37;;;;;;;11.43;10.20;;;;;;;8.32;31.71;101008.84;6065357;23;20027;-93
2022/03/06 14:26:08;;;;;;;11.88;9.75;;;;;;;7.93;32.40;100987.00;6038138;23;20109;-94
2022/03/06 14:32:01;;;;;;;12.07;10.20;;;;;;;7.68;33.13;100992.94;6062815;23;20019;-94
2022/03/06 14:34:31;;;;;;;13.30;10.20;;;;;;;7.59;33.13;100981.75;6042013;23;20011;-92
2022/03/06 14:37:03;;;;;;;11.27;10.07;;;;;;;7.36;33.04;100942.81;6064878;23;20058;-93
2022/03/06 14:39:53;;;;;;;12.50;9.68;;;;;;;7.53;32.82;100974.88;6041987;23;20033;-92
2022/03/06 14:43:04;;;;;;;11.77;9.82;;;;;;;7.50;33.01;100982.84;6074178;23;20019;-91
2022/03/06 14:45:33;;;;;;;10.50;9.40;;;;;;;7.61;32.91;100988.72;6078671;23;20030;-92
2022/03/06 14:48:22;;;;;;;12.88;10.02;;;;;;;7.84;32.16;100990.75;6080808;23;20022;-91
2022/03/06 14:50:53;;;;;;;11.27;9.98;;;;;;;8.14;32.73;101001.41;6075023;23;20368;-92
2022/03/06 14:54:03;;;;;;;11.20;9.38;;;;;;;8.92;30.68;101002.69;6079757;23;20326;-94
2022/03/06 14:56:36;;;;;;;9.57;8.50;;;;;;;9.14;30.34;100985.22;6152425;23;20021;-94
2022/03/06 14:59:06;;;;;;;11.32;10.05;;;;;;;9.08;30.05;100999.53;6155809;23;20096;-93
2022/03/06 15:01:47;;;;;;;12.43;10.82;;;;;;;8.73;31.40;101007.63;6156050;23;20018;-93
2022/03/06 15:04:22;;;;;;;15.48;13.00;;;;;;;8.29;32.35;100991.28;6153663;23;20018;-93
2022/03/06 15:07:27;;;;;;;14.93;12.05;;;;;;;7.80;32.97;100991.75;6162626;23;20014;-93
2022/03/06 15:10:08;;;;;;;14.48;12.52;;;;;;;7.70;33.32;101021.91;6154955;23;20009;-93
2022/03/06 15:12:56;;;;;;;14.40;12.43;;;;;;;7.11;34.13;100968.00;6157979;23;20409;-94
2022/03/06 15:15:37;;;;;;;15.75;13.40;;;;;;;6.94;34.07;100984.19;6152649;23;20311;-93
2022/03/06 15:18:28;;;;;;;16.52;13.85;;;;;;;6.81;34.52;100991.50;6155221;23;20096;-92
2022/03/06 15:20:55;;;;;;;16.35;14.10;;;;;;;6.89;35.39;101022.94;6159572;23;20022;-93
2022/03/06 15:23:22;;;;;;;16.98;14.05;;;;;;;6.78;35.46;101006.47;6155860;23;20017;-92
2022/03/06 15:26:35;;;;;;;17.25;14.52;;;;;;;6.81;35.87;101030.09;6153367;23;20750;-92
2022/03/06 15:29:02;;;;;;;16.25;14.52;;;;;;;6.41;37.48;100986.22;6154759;23;20018;-93
2022/03/06 15:31:32;;;;;;;16.95;14.13;;;;;;;6.78;36.61;101036.31;6156459;23;20013;-93
2022/03/06 15:34:00;;;;;;;16.73;13.88;;;;;;;6.56;36.34;101025.38;6158418;23;20018;-93
2022/03/06 15:36:32;;;;;;;17.50;14.63;;;;;;;6.12;36.71;100980.69;6152247;23;20025;-93
2022/03/06 15:40:23;;;;;;;16.17;13.65;;;;;;;6.18;37.41;101035.78;6154568;23;20076;-92
2022/03/06 15:42:58;;;;;;;16.48;13.80;;;;;;;6.01;37.18;101016.81;6151922;23;20017;-94
2022/03/06 15:45:58;;;;;;;17.63;13.77;;;;;;;5.61;37.59;100972.81;6154489;23;20019;-93
2022/03/06 15:49:50;;;;;;;17.50;13.43;;;;;;;5.85;38.08;101040.69;6155676;23;20026;-93
2022/03/06 15:52:51;;;;;;;16.05;12.70;;;;;;;5.83;37.83;101045.13;6137381;23;20024;-93
2022/03/06 15:55:25;;;;;;;15.32;12.77;;;;;;;5.60;38.31;101007.88;6155472;23;20025;-92
2022/03/06 15:57:54;;;;;;;14.80;12.63;;;;;;;5.82;37.32;101051.31;6161061;23;20010;-93
2022/03/06 16:00:55;;;;;;;14.57;12.43;;;;;;;5.67;37.72;101029.66;6179597;23;20032;-93
2022/03/06 16:03:23;;;;;;;15.35;12.40;;;;;;;5.49;37.27;101002.81;6161633;23;20021;-91
2022/03/06 16:06:03;;;;;;;15.07;12.35;;;;;;;5.42;37.40;101000.28;6153012;23;20096;-92
2022/03/06 16:09:14;;;;;;;14.82;12.57;;;;;;;5.63;37.08;101039.34;6158641;23;20456;-91
2022/03/06 16:11:46;;;;;;;14.60;12.13;;;;;;;5.63;37.28;101041.97;6158935;23;20023;-92
2022/03/06 16:19:08;;;;;;;;;;;;;;;5.54;37.37;101039.47;5946591;23;20020;-92
2022/03/06 16:22:21;;;;;;;15.30;11.52;;;;;;;5.51;37.77;101050.91;5981643;24;20387;-92
2022/03/06 16:25:19;;;;;;;;;;;;;;;;;;;;;
2022/03/06 16:28:19;;;;;;;13.95;11.60;;;;;;;5.25;37.83;101026.81;6030500;23;20106;-93
2022/03/06 16:31:05;;;;;;;13.18;11.30;;;;;;;5.17;38.64;101013.81;6074513;23;20053;-91
2022/03/06 16:33:36;;;;;;;13.20;11.18;;;;;;;5.18;38.52;101020.81;6095880;23;20585;-93
2022/03/06 16:36:20;;;;;;;14.77;10.77;;;;;;;5.27;37.77;101051.28;6092388;23;20093;-92
2022/03/06 16:38:48;;;;;;;15.02;10.88;;;;;;;4.98;38.91;101011.47;6092687;23;20042;-91
2022/03/06 16:41:25;;;;;;;14.43;10.65;;;;;;;5.06;38.54;101017.47;6093905;23;20010;-92
2022/03/06 16:43:53;;;;;;;12.60;10.15;;;;;;;4.92;37.82;101013.28;6093709;23;20006;-93
2022/03/06 16:46:54;;;;;;;12.20;9.73;;;;;;;5.07;39.07;101029.69;6101956;23;20026;-94
2022/03/06 16:49:26;;;;;;;13.02;10.20;;;;;;;4.95;38.26;101028.13;6156160;23;20076;-93
2022/03/06 16:52:02;;;;;;;13.35;9.73;;;;;;;5.00;38.66;101049.94;6155164;23;20022;-93
2022/03/06 16:54:43;;;;;;;12.60;9.60;;;;;;;5.00;39.84;101052.56;6157724;23;20024;-91
2022/03/06 16:57:35;;;;;;;11.63;9.27;;;;;;;4.98;39.00;101040.34;6150370;23;20117;-91
2022/03/06 17:00:19;;;;;;;12.80;9.38;;;;;;;4.97;39.02;101044.72;6157532;23;20021;-89
2022/03/06 17:03:52;;;;;;;12.68;9.55;;;;;;;4.85;39.49;101044.91;6154389;23;20048;-91
2022/03/06 17:06:25;;;;;;;11.32;9.25;;;;;;;4.77;39.96;101044.97;6161300;23;20013;-93
2022/03/06 17:08:54;;;;;;;12.02;9.18;;;;;;;4.65;39.94;101034.66;6167934;23;20022;-92
2022/03/06 17:11:35;;;;;;;;;;;;;;;4.82;40.28;101047.56;6165123;23;20025;-92
2022/03/06 17:14:16;;;;;;;11.68;8.93;;;;;;;4.66;39.54;100999.66;6167667;23;19996;-93
2022/03/06 17:16:57;;;;;;;12.68;9.57;;;;;;;4.63;39.96;101007.56;6167308;23;20028;-92
2022/03/06 17:19:28;;;;;;;10.82;9.43;;;;;;;4.34;40.12;100983.47;6196500;23;20021;-93
2022/03/06 17:22:01;;;;;;;13.25;9.73;;;;;;;4.53;40.41;101014.69;6173757;23;20761;-94
2022/03/06 17:24:35;;;;;;;11.52;9.43;;;;;;;4.71;40.36;101057.31;6170209;23;20430;-92
2022/03/06 17:27:04;;;;;;;11.70;9.25;;;;;;;4.33;40.84;100998.31;6163902;23;20045;-94
2022/03/06 17:29:42;;;;;;;12.07;9.05;;;;;;;4.70;40.82;101061.72;6140292;23;20044;-94
2022/03/06 17:32:28;;;;;;;13.10;10.10;;;;;;;4.56;40.94;101043.47;6169106;23;20041;-93
2022/03/06 17:35:19;;;;;;;;;;;;;;;;;;;;;
2022/03/06 17:37:51;;;;;;;13.20;9.52;;;;;;;4.72;41.76;101075.66;6156054;23;20052;-92
2022/03/06 17:40:40;;;;;;;;;;;;;;;;;;;;;
2022/03/06 17:43:20;;;;;;;13.10;9.90;;;;;;;4.48;41.22;101068.06;6146945;23;20018;-93
2022/03/06 17:45:58;;;;;;;12.30;10.32;;;;;;;4.33;42.14;101042.91;6183263;23;20014;-95
2022/03/06 17:49:14;;;;;;;13.50;10.18;;;;;;;4.55;41.80;101086.38;6160507;23;20434;-93
2022/03/06 17:51:48;;;;;;;13.73;9.93;;;;;;;4.41;42.35;101071.63;6179850;23;20092;-94
2022/03/06 17:54:36;;;;;;;13.10;10.43;;;;;;;4.10;42.25;101031.78;6160511;23;20100;-95
2022/03/06 17:57:17;;;;;;;15.18;11.15;;;;;;;4.07;42.79;101039.69;6160005;23;20041;-94
2022/03/06 18:00:32;;;;;;;;;;;;;;;;;;;;;
2022/03/06 18:03:21;;;;;;;;;;;;;;;;;;;;;
2022/03/06 18:06:18;;;;;;;;;;;;;;;;;;;;;
2022/03/06 18:09:50;;;;;;;14.32;10.82;;;;;;;3.88;44.01;101049.47;6161320;23;20013;-96
2022/03/06 18:12:52;;;;;;;;;;;;;;;4.22;43.97;101098.06;6138151;23;20469;-95
2022/03/06 18:16:02;;;;;;;;;;;;;;;;;;;;;
2022/03/06 18:18:44;;;;;;;14.88;10.80;;;;;;;4.26;43.46;101104.13;6143645;23;20018;-94
2022/03/06 18:21:19;;;;;;;16.27;11.80;;;;;;;4.14;43.40;101099.88;6156923;23;20017;-95
2022/03/06 18:23:52;;;;;;;16.83;11.82;;;;;;;3.74;43.83;101049.59;6159549;23;20020;-94
2022/03/06 18:26:36;;;;;;;14.60;11.30;;;;;;;4.02;43.57;101088.66;6163916;23;20066;-94
2022/03/06 18:29:22;;;;;;;14.65;11.68;;;;;;;3.88;44.17;101073.06;6171268;23;20773;-93
2022/03/06 18:32:02;;;;;;;15.82;10.98;;;;;;;3.84;47.60;101068.72;6161032;23;20017;-93
2022/03/06 18:34:42;;;;;;;15.70;11.23;;;;;;;3.71;44.46;101052.25;6158320;23;20013;-93
2022/03/06 18:37:14;;;;;;;14.82;11.18;;;;;;;4.00;44.58;101112.25;6133966;23;20400;-93
2022/03/06 18:40:06;;;;;;;13.93;11.23;;;;;;;3.77;45.33;101073.16;6156265;23;20021;-93
2022/03/06 18:42:56;;;;;;;14.25;10.93;;;;;;;3.98;44.39;101108.78;6160900;23;20025;-93
2022/03/06 18:45:48;;;;;;;15.98;11.60;;;;;;;3.70;44.76;101068.84;6160004;23;20014;-92
2022/03/06 19:04:06;;;;;;;16.88;12.13;;;;;;;3.69;45.10;101106.41;6161577;23;20081;-92
2022/03/06 19:07:26;;;;;;;;;;;;;;;;;;;;;
2022/03/06 19:10:54;;;;;;;14.73;11.95;;;;;;;3.40;45.52;101072.56;6138191;23;20098;-92
2022/03/06 19:14:07;;;;;;;16.38;11.70;;;;;;;3.73;46.31;101136.06;6160779;23;20040;-90
2022/03/06 19:17:11;;;;;;;15.55;11.90;;;;;;;3.60;46.58;101121.31;6159523;23;20330;-93
2022/03/06 19:20:20;;;;;;;16.90;12.13;;;;;;;3.52;47.14;101132.69;6139820;23;20025;-92
2022/03/06 19:22:53;;;;;;;14.15;11.68;;;;;;;3.42;47.78;101114.44;6156049;23;20021;-93
2022/03/06 19:26:01;;;;;;;;;;;;;;;;;;;;;
2022/03/06 19:28:55;;;;;;;17.38;12.02;;;;;;;3.36;47.87;101124.94;6159622;23;20021;-91
2022/03/06 19:31:52;;;;;;;14.07;11.43;;;;;;;3.28;48.13;101124.13;6165405;23;20016;-94
2022/03/06 19:34:42;;;;;;;15.85;11.45;;;;;;;3.10;47.81;101098.94;6167865;23;20459;-93
2022/03/06 19:41:38;;;;;;;;;;;;;;;;;;;;;
2022/03/06 19:44:44;;;;;;;16.30;11.40;;;;;;;3.47;48.78;101162.41;6015074;23;20072;-92
2022/03/06 19:47:24;;;;;;;15.15;11.23;;;;;;;3.23;48.53;101125.91;6041851;23;20027;-91
2022/03/06 19:51:03;;;;;;;16.98;12.00;;;;;;;3.12;49.41;101133.81;6030651;23;20015;-91
2022/03/06 19:53:47;;;;;;;;;;;;;;;;;;;;;
2022/03/06 19:56:22;;;;;;;13.68;11.07;;;;;;;3.05;49.58;101132.97;6019995;23;20048;-93
2022/03/06 19:59:05;;;;;;;16.02;11.40;;;;;;;3.24;49.35;101164.28;6086271;23;20026;-92
2022/03/06 20:01:49;;;;;;;14.57;10.95;;;;;;;3.02;49.67;101143.44;6156140;23;20096;-91
2022/03/06 20:04:34;;;;;;;14.68;10.88;;;;;;;2.80;49.97;101113.03;6158051;23;20018;-93
2022/03/06 20:07:14;;;;;;;;;;;;;;;;;;;;;
2022/03/06 20:10:26;;;;;;;14.32;10.88;;;;;;;3.05;49.94;101174.81;6056277;23;20022;-92
2022/03/06 20:13:06;;;;;;;15.13;10.10;;;;;;;2.75;50.21;101135.69;6109313;23;20070;-93
2022/03/06 20:15:51;;;;;;;12.80;9.88;;;;;;;2.87;49.70;101158.31;6108309;23;20015;-91
2022/03/06 20:19:06;;;;;;;;;;;;;;;;;;;;;
2022/03/06 20:22:20;;;;;;;14.63;9.93;;;;;;;2.81;49.71;101156.63;6026688;23;20052;-93
2022/03/06 20:25:34;;;;;;;13.00;10.05;;;;;;;2.55;50.71;101127.03;6045819;23;20017;-93
2022/03/06 20:28:19;;;;;;;14.05;9.43;;;;;;;2.60;50.28;101154.91;6081404;23;20039;-93
2022/03/06 20:30:55;;;;;;;12.85;9.48;;;;;;;2.72;49.61;101182.78;6080422;23;20015;-92
2022/03/06 20:34:07;;;;;;;12.85;8.57;;;;;;;2.50;49.79;101145.38;6057551;23;20023;-93
2022/03/06 20:37:01;;;;;;;11.98;8.45;;;;;;;2.80;49.59;101215.03;6081971;23;20021;-96
2022/03/06 20:39:49;;;;;;;11.25;7.75;;;;;;;2.76;49.61;101208.94;6072803;23;20111;-93
2022/03/06 20:46:24;;;;;;;;;;;;;;;;;;;;;
2022/03/06 20:49:50;;;;;;;12.32;7.50;;;;;;;2.62;49.68;101213.31;6123370;23;20200;-91
2022/03/06 20:52:23;;;;;;;9.90;7.03;;;;;;;2.60;49.38;101222.03;6095061;23;20021;-91
2022/03/06 20:55:49;;;;;;;10.57;7.05;;;;;;;2.54;49.46;101217.66;6062505;23;20061;-93
2022/03/06 20:58:51;;;;;;;8.48;5.68;;;;;;;2.08;49.73;101154.09;6140046;23;20018;-92
2022/03/06 21:01:23;;;;;;;10.43;7.25;;;;;;;2.08;49.70;101159.34;6158652;23;20021;-93
2022/03/06 21:04:14;;;;;;;10.30;7.38;;;;;;;2.10;49.92;101173.28;6156791;23;20021;-93
2022/03/06 21:06:54;;;;;;;9.27;7.15;;;;;;;2.23;50.57;101208.09;6155295;23;20029;-93
2022/03/06 21:09:36;;;;;;;10.07;7.35;;;;;;;1.94;50.39;101176.75;6153556;23;20013;-93
2022/03/06 21:12:11;;;;;;;11.68;8.23;;;;;;;2.24;50.32;101220.31;6153417;23;20953;-94
2022/03/06 21:14:51;;;;;;;11.00;7.70;;;;;;;2.22;50.73;101230.75;6140615;23;20013;-92
2022/03/06 21:18:07;;;;;;;9.95;7.88;;;;;;;2.06;51.13;101200.25;6175045;23;20029;-91
2022/03/06 21:20:55;;;;;;;11.63;7.43;;;;;;;2.12;51.64;101215.94;6174321;23;20080;-94
2022/03/06 21:23:32;;;;;;;10.50;7.07;;;;;;;1.81;52.04;101175.88;6154331;23;20013;-94
2022/03/06 21:29:35;;;;;;;9.55;7.13;;;;;;;1.81;51.93;101193.28;6155131;23;20410;-94
2022/03/06 21:32:23;;;;;;;9.82;6.80;;;;;;;1.85;52.12;101193.28;6092926;23;20692;-93
2022/03/06 21:36:21;;;;;;;11.35;7.20;;;;;;;2.05;51.87;101232.47;6093413;23;20086;-93
2022/03/06 21:39:23;;;;;;;8.52;6.38;;;;;;;2.08;51.72;101241.19;6089159;23;20118;-92
2022/03/06 21:46:16;;;;;;;8.35;6.85;;;;;;;1.93;52.47;101243.78;6093109;23;20033;-93
2022/03/06 21:49:22;;;;;;;9.15;6.75;;;;;;;1.73;52.36;101209.78;6098162;23;20018;-92
2022/03/06 21:52:21;;;;;;;10.20;6.70;;;;;;;1.84;52.69;101245.53;6101708;23;20073;-91
2022/03/06 21:55:35;;;;;;;12.43;7.55;;;;;;;1.74;52.45;101235.03;6075448;23;20010;-95
2022/03/06 21:58:17;;;;;;;11.32;6.75;;;;;;;1.55;53.21;101207.16;6094742;23;20101;-92
2022/03/06 22:01:09;;;;;;;10.30;6.95;;;;;;;1.89;52.80;101254.25;6094093;23;20014;-92
2022/03/06 22:03:52;;;;;;;10.77;6.55;;;;;;;1.47;52.40;101193.22;6163342;23;20495;-94
2022/03/06 22:07:00;;;;;;;9.02;6.68;;;;;;;1.77;53.18;101253.34;6123262;23;20369;-91
2022/03/06 22:09:41;;;;;;;8.93;6.80;;;;;;;1.73;52.58;101262.00;6129534;23;20029;-92
2022/03/06 22:16:46;;;;;;;10.43;6.45;;;;;;;1.30;53.07;101193.16;6079958;23;20014;-94
2022/03/06 22:19:34;;;;;;;10.32;6.45;;;;;;;1.54;55.12;101228.03;6026003;23;20045;-92
2022/03/06 22:22:44;;;;;;;;;;;;;;;;;;;;;
2022/03/06 23:02:21;;;;;;;9.25;6.50;;;;;;;1.37;58.06;101280.19;6140840;23;20033;-93
